Time;durP1;ratioP1;P1;durP2;ratioP2;P2;SDS_P1;SDS_P2;PMS_P1;PMS_P2;Temp;Humidity;BMP_temperature;BMP_pressure;BME280_temperature;BME280_humidity;BME280_pressure;Samples;Min_cycle;Max_cycle;Signal;HPM_P1;HPM_P2
2021/01/05 00:00:33;;;;;;;;;;;2.40;93.20;;;;;;5020085;28;20373;-70
2021/01/05 00:02:58;;;;;;;;;;;2.40;93.20;;;;;;5024461;28;20419;-70
2021/01/05 00:05:24;;;;;;;;;;;2.40;93.20;;;;;;5017803;28;20385;-70
2021/01/05 00:07:50;;;;;;;;;;;2.40;93.20;;;;;;5017484;28;19983;-70
2021/01/05 00:10:16;;;;;;;;;;;2.40;93.20;;;;;;5019666;28;20047;-70
2021/01/05 00:12:41;;;;;;;;;;;2.40;93.10;;;;;;5017046;28;20291;-70
2021/01/05 00:15:08;;;;;;;;;;;2.40;93.20;;;;;;5018698;28;19925;-70
2021/01/05 00:17:34;;;;;;;;;;;2.40;93.30;;;;;;5020366;28;20016;-70
2021/01/05 00:20:00;;;;;;;;;;;2.40;93.30;;;;;;5020705;28;19952;-70
2021/01/05 00:22:26;;;;;;;;;;;2.40;93.20;;;;;;5021450;28;19970;-70
2021/01/05 00:24:52;;;;;;;;;;;2.40;93.40;;;;;;5018315;28;19928;-70
2021/01/05 00:27:17;;;;;;;;;;;2.30;93.30;;;;;;5021676;28;19917;-70
2021/01/05 00:29:43;;;;;;;;;;;2.40;93.40;;;;;;5019698;28;19921;-70
2021/01/05 00:32:13;;;;;;;;;;;2.40;93.40;;;;;;5017418;28;19944;-70
2021/01/05 00:34:39;;;;;;;;;;;2.30;93.70;;;;;;5020508;28;19953;-70
2021/01/05 00:37:04;;;;;;;;;;;2.30;93.70;;;;;;5020197;28;19972;-70
2021/01/05 00:39:30;;;;;;;;;;;2.40;93.50;;;;;;5018924;28;19921;-70
2021/01/05 00:41:56;;;;;;;;;;;2.40;93.50;;;;;;5016758;28;19924;-70
2021/01/05 00:44:21;;;;;;;;;;;2.40;93.90;;;;;;5019002;28;19925;-70
2021/01/05 00:46:47;;;;;;;;;;;2.40;93.50;;;;;;5016940;28;19919;-70
2021/01/05 00:49:12;;;;;;;;;;;2.40;93.40;;;;;;5018738;28;19917;-70
2021/01/05 00:51:38;;;;;;;;;;;2.40;93.50;;;;;;5019580;28;19928;-70
2021/01/05 00:54:04;;;;;;;;;;;2.40;93.60;;;;;;5017479;28;20022;-70
2021/01/05 00:56:29;;;;;;;;;;;2.40;93.60;;;;;;5020871;28;19924;-70
2021/01/05 00:58:55;;;;;;;;;;;2.40;93.60;;;;;;5023943;28;19928;-70
2021/01/05 01:01:21;;;;;;;;;;;2.40;93.70;;;;;;5022169;28;19923;-70
2021/01/05 01:03:50;;;;;;;;;;;2.40;93.60;;;;;;5019808;28;20387;-70
2021/01/05 01:06:16;;;;;;;;;;;2.40;93.60;;;;;;5026556;28;19948;-70
2021/01/05 01:08:42;;;;;;;;;;;2.40;93.60;;;;;;5023168;28;19920;-70
2021/01/05 01:11:07;;;;;;;;;;;2.40;93.60;;;;;;5022771;28;19928;-70
2021/01/05 01:13:33;;;;;;;;;;;2.40;93.70;;;;;;5022340;28;19924;-70
2021/01/05 01:15:58;;;;;;;;;;;2.40;93.60;;;;;;5026379;28;19924;-70
2021/01/05 01:18:25;;;;;;;;;;;2.40;93.40;;;;;;5024045;28;20497;-70
2021/01/05 01:20:50;;;;;;;;;;;2.40;93.40;;;;;;5021227;28;19921;-70
2021/01/05 01:23:17;;;;;;;;;;;2.40;93.50;;;;;;5023263;28;19979;-71
2021/01/05 01:25:43;;;;;;;;;;;2.40;93.50;;;;;;5020108;28;19932;-70
2021/01/05 01:28:08;;;;;;;;;;;2.40;93.50;;;;;;5024682;28;19936;-71
2021/01/05 01:30:34;;;;;;;;;;;2.40;93.60;;;;;;5022543;28;19940;-70
2021/01/05 01:32:59;;;;;;;;;;;2.30;93.70;;;;;;5024070;28;19921;-70
2021/01/05 01:35:25;;;;;;;;;;;2.40;93.60;;;;;;5023216;28;19931;-70
2021/01/05 01:37:50;;;;;;;;;;;2.40;93.60;;;;;;5021224;28;19924;-70
2021/01/05 01:40:23;;;;;;;;;;;2.40;93.80;;;;;;5021961;28;20384;-70
2021/01/05 01:42:48;;;;;;;;;;;2.40;94.00;;;;;;5022380;28;19917;-70
2021/01/05 01:45:21;;;;;;;;;;;2.40;93.80;;;;;;5022805;28;19923;-70
2021/01/05 01:47:46;;;;;;;;;;;2.60;93.80;;;;;;5023366;28;20537;-70
2021/01/05 01:50:13;;;;;;;;;;;2.40;93.80;;;;;;5023246;28;20007;-70
2021/01/05 01:52:51;;;;;;;;;;;2.40;93.90;;;;;;5023917;28;19925;-70
2021/01/05 01:55:27;;;;;;;;;;;2.40;93.70;;;;;;5025917;28;20265;-70
2021/01/05 01:58:08;;;;;;;;;;;2.40;93.80;;;;;;5020563;28;19931;-70
2021/01/05 02:00:39;;;;;;;;;;;2.40;94.00;;;;;;5024082;28;19923;-70
2021/01/05 02:03:04;;;;;;;;;;;2.40;94.00;;;;;;5019490;28;19928;-70
2021/01/05 02:05:46;;;;;;;;;;;2.40;94.10;;;;;;5022914;28;21276;-70
2021/01/05 02:08:38;;;;;;;;;;;2.40;94.10;;;;;;5023083;28;20437;-70
2021/01/05 02:11:09;;;;;;;;;;;2.40;94.00;;;;;;5020882;28;19925;-70
2021/01/05 02:13:59;;;;;;;;;;;2.40;93.90;;;;;;5019478;28;20024;-70
2021/01/05 02:16:28;;;;;;;;;;;2.40;94.00;;;;;;5020929;28;19917;-70
2021/01/05 02:18:55;;;;;;;;;;;2.40;93.90;;;;;;5023454;28;19926;-70
2021/01/05 02:21:26;;;;;;;;;;;2.40;94.10;;;;;;5024695;28;19918;-70
2021/01/05 02:24:09;;;;;;;;;;;2.40;94.10;;;;;;5022597;28;20025;-70
2021/01/05 02:26:38;;;;;;;;;;;2.40;94.10;;;;;;5022769;28;19928;-70
2021/01/05 02:29:06;;;;;;;;;;;2.40;94.20;;;;;;5023291;28;20003;-71
2021/01/05 02:31:39;;;;;;;;;;;2.40;94.10;;;;;;5019477;28;20544;-70
2021/01/05 02:34:23;;;;;;;;;;;2.40;94.10;;;;;;5025061;28;19925;-70
2021/01/05 02:36:57;;;;;;;;;;;2.40;94.20;;;;;;5020493;28;19971;-70
2021/01/05 02:39:41;;;;;;;;;;;2.50;94.00;;;;;;5021014;28;19925;-70
2021/01/05 02:42:26;;;;;;;;;;;2.50;94.00;;;;;;5019093;28;20028;-70
2021/01/05 02:44:57;;;;;;;;;;;2.50;94.10;;;;;;5019053;28;19917;-70
2021/01/05 02:47:30;;;;;;;;;;;2.50;94.20;;;;;;5022190;28;19980;-70
2021/01/05 02:50:08;;;;;;;;;;;2.50;94.30;;;;;;5020281;28;19968;-70
2021/01/05 02:52:39;;;;;;;;;;;2.50;94.20;;;;;;5023622;28;19921;-70
2021/01/05 02:55:23;;;;;;;;;;;2.50;94.20;;;;;;5020253;28;19917;-70
2021/01/05 02:58:03;;;;;;;;;;;2.50;94.20;;;;;;5021053;28;19968;-71
2021/01/05 03:00:47;;;;;;;;;;;2.40;94.20;;;;;;5019589;28;20039;-70
2021/01/05 03:03:37;;;;;;;;;;;2.50;94.20;;;;;;5020747;28;19924;-70
2021/01/05 03:06:29;;;;;;;;;;;2.50;94.30;;;;;;5020688;28;19925;-70
2021/01/05 03:09:18;;;;;;;;;;;2.50;94.30;;;;;;5018195;28;19924;-70
2021/01/05 03:11:43;;;;;;;;;;;2.50;94.30;;;;;;5018470;28;19921;-70
2021/01/05 03:14:14;;;;;;;;;;;2.50;94.30;;;;;;5019613;28;19928;-70
2021/01/05 03:16:44;;;;;;;;;;;2.50;94.50;;;;;;5019252;28;19925;-70
2021/01/05 03:19:29;;;;;;;;;;;2.60;94.50;;;;;;5020337;28;19921;-70
2021/01/05 03:21:56;;;;;;;;;;;2.50;94.60;;;;;;5019079;28;19925;-70
2021/01/05 03:24:23;;;;;;;;;;;2.50;94.70;;;;;;5019510;28;19921;-70
2021/01/05 03:26:50;;;;;;;;;;;2.50;94.70;;;;;;5020264;28;19924;-70
2021/01/05 03:29:17;;;;;;;;;;;2.50;94.80;;;;;;5022185;28;20265;-70
2021/01/05 03:31:47;;;;;;;;;;;2.50;94.80;;;;;;5016542;28;19921;-70
2021/01/05 03:34:14;;;;;;;;;;;2.60;94.70;;;;;;5020591;28;19917;-71
2021/01/05 03:36:39;;;;;;;;;;;2.50;94.80;;;;;;5018037;28;19995;-70
2021/01/05 03:39:05;;;;;;;;;;;2.50;94.80;;;;;;5018866;28;21044;-70
2021/01/05 03:41:31;;;;;;;;;;;2.50;94.90;;;;;;5020103;28;20517;-70
2021/01/05 03:43:57;;;;;;;;;;;2.50;95.30;;;;;;5018601;28;19928;-70
2021/01/05 03:46:25;;;;;;;;;;;2.50;95.40;;;;;;5021893;28;19921;-70
2021/01/05 03:48:50;;;;;;;;;;;2.50;95.10;;;;;;5015537;28;19929;-70
2021/01/05 03:51:16;;;;;;;;;;;2.60;95.10;;;;;;5019299;28;19944;-70
2021/01/05 03:53:41;;;;;;;;;;;2.60;95.00;;;;;;5018927;28;20402;-70
2021/01/05 03:56:07;;;;;;;;;;;2.60;95.00;;;;;;5021265;28;19925;-70
2021/01/05 03:58:33;;;;;;;;;;;2.60;95.00;;;;;;5018853;28;19924;-70
2021/01/05 04:00:58;;;;;;;;;;;2.70;95.00;;;;;;5020084;28;19952;-70
2021/01/05 04:03:24;;;;;;;;;;;2.70;94.90;;;;;;5019988;28;19974;-70
2021/01/05 04:05:49;;;;;;;;;;;2.70;95.00;;;;;;5019776;28;21496;-70
2021/01/05 04:08:15;;;;;;;;;;;2.70;94.90;;;;;;5018696;28;20347;-70
2021/01/05 04:10:41;;;;;;;;;;;2.70;95.10;;;;;;5021773;28;20375;-70
2021/01/05 04:13:06;;;;;;;;;;;2.80;94.80;;;;;;5021875;28;20256;-70
2021/01/05 04:15:32;;;;;;;;;;;2.70;94.80;;;;;;5022163;28;19931;-70
2021/01/05 04:17:58;;;;;;;;;;;2.80;94.70;;;;;;5020715;28;19924;-70
2021/01/05 04:20:25;;;;;;;;;;;2.70;94.80;;;;;;5020063;28;19921;-70
2021/01/05 04:22:51;;;;;;;;;;;2.80;94.80;;;;;;5018747;28;19927;-70
2021/01/05 04:25:17;;;;;;;;;;;2.80;94.70;;;;;;5018594;28;19925;-70
2021/01/05 04:27:42;;;;;;;;;;;2.80;94.70;;;;;;5019790;28;19925;-70
2021/01/05 04:30:15;;;;;;;;;;;2.70;94.70;;;;;;5022432;28;19971;-70
2021/01/05 04:32:41;;;;;;;;;;;2.80;94.80;;;;;;5020060;28;19964;-71
2021/01/05 04:35:06;;;;;;;;;;;2.80;94.80;;;;;;5022430;28;19917;-70
2021/01/05 04:37:32;;;;;;;;;;;2.80;94.70;;;;;;5021881;28;19921;-70
2021/01/05 04:39:57;;;;;;;;;;;2.80;94.70;;;;;;5019256;28;19917;-70
2021/01/05 04:42:31;;;;;;;;;;;2.80;94.70;;;;;;5024102;28;20047;-70
2021/01/05 04:45:00;;;;;;;;;;;2.80;94.70;;;;;;5018075;28;19917;-71
2021/01/05 04:47:40;;;;;;;;;;;2.80;94.70;;;;;;5019563;28;19927;-70
2021/01/05 04:50:08;;;;;;;;;;;2.80;94.60;;;;;;5023982;28;20367;-70
2021/01/05 04:52:42;;;;;;;;;;;2.80;94.60;;;;;;5023704;28;20299;-70
2021/01/05 04:55:28;;;;;;;;;;;2.90;94.60;;;;;;5023935;28;19925;-70
2021/01/05 04:58:02;;;;;;;;;;;2.90;94.90;;;;;;5001806;28;20391;-71
2021/01/05 05:00:28;;;;;;;;;;;2.90;94.70;;;;;;5020511;28;20004;-71
2021/01/05 05:02:56;;;;;;;;;;;2.90;94.60;;;;;;5024855;28;20067;-70
2021/01/05 05:05:25;;;;;;;;;;;2.90;94.50;;;;;;5023426;28;19926;-70
2021/01/05 05:07:50;;;;;;;;;;;2.80;94.50;;;;;;5021049;28;19924;-70
2021/01/05 05:10:38;;;;;;;;;;;2.90;94.40;;;;;;5021004;28;19955;-71
2021/01/05 05:13:25;;;;;;;;;;;2.90;94.40;;;;;;5021254;28;19918;-71
2021/01/05 05:16:01;;;;;;;;;;;2.90;94.50;;;;;;5021982;28;19916;-70
2021/01/05 05:18:47;;;;;;;;;;;2.90;94.20;;;;;;5021624;28;19935;-70
2021/01/05 05:21:28;;;;;;;;;;;2.90;94.30;;;;;;5023110;28;19929;-70
2021/01/05 05:24:11;;;;;;;;;;;2.90;94.20;;;;;;5023061;28;20099;-70
2021/01/05 05:26:40;;;;;;;;;;;2.90;94.20;;;;;;5022883;28;19917;-70
2021/01/05 05:29:15;;;;;;;;;;;2.90;94.20;;;;;;5023257;28;19941;-71
2021/01/05 05:31:42;;;;;;;;;;;2.80;94.30;;;;;;5022036;28;19940;-70
2021/01/05 05:34:23;;;;;;;;;;;2.90;94.40;;;;;;5021926;28;19967;-70
2021/01/05 05:36:57;;;;;;;;;;;2.90;94.40;;;;;;5023014;28;19917;-70
2021/01/05 05:39:42;;;;;;;;;;;2.90;94.30;;;;;;5024120;28;19924;-71
2021/01/05 05:42:10;;;;;;;;;;;2.90;94.30;;;;;;5023852;28;19961;-70
2021/01/05 05:44:39;;;;;;;;;;;2.90;94.40;;;;;;5025878;28;20535;-70
2021/01/05 05:47:05;;;;;;;;;;;2.90;94.30;;;;;;5026363;28;19917;-70
2021/01/05 05:49:33;;;;;;;;;;;2.90;94.40;;;;;;5022463;28;20386;-71
2021/01/05 05:52:01;;;;;;;;;;;2.90;94.20;;;;;;5025408;28;19917;-70
2021/01/05 05:54:26;;;;;;;;;;;3.00;94.20;;;;;;5019774;28;20011;-71
2021/01/05 05:56:52;;;;;;;;;;;2.90;94.40;;;;;;5019840;28;20369;-70
2021/01/05 05:59:19;;;;;;;;;;;2.90;94.30;;;;;;5019056;28;19925;-70
2021/01/05 06:01:44;;;;;;;;;;;2.90;94.70;;;;;;5021060;28;19963;-70
2021/01/05 06:04:11;;;;;;;;;;;2.90;94.30;;;;;;5021186;28;19964;-71
2021/01/05 06:06:37;;;;;;;;;;;2.90;94.20;;;;;;5022799;28;19956;-71
2021/01/05 06:09:03;;;;;;;;;;;2.90;94.30;;;;;;5023383;28;20015;-71
2021/01/05 06:11:33;;;;;;;;;;;2.90;94.40;;;;;;5022180;28;20000;-70
2021/01/05 06:14:02;;;;;;;;;;;2.90;94.40;;;;;;5021585;28;20426;-71
2021/01/05 06:16:34;;;;;;;;;;;2.90;94.80;;;;;;5023640;28;19925;-71
2021/01/05 06:18:59;;;;;;;;;;;2.90;94.60;;;;;;5019326;28;20004;-71
2021/01/05 06:21:25;;;;;;;;;;;2.90;94.50;;;;;;5018937;28;19928;-70
2021/01/05 06:23:51;;;;;;;;;;;2.90;94.50;;;;;;5017514;28;19921;-70
2021/01/05 06:26:18;;;;;;;;;;;2.90;94.60;;;;;;5023187;28;19971;-70
2021/01/05 06:28:43;;;;;;;;;;;2.90;94.50;;;;;;5026074;28;19924;-70
2021/01/05 06:31:09;;;;;;;;;;;2.90;94.60;;;;;;5022802;28;19921;-71
2021/01/05 06:33:35;;;;;;;;;;;2.90;94.50;;;;;;5022695;28;21263;-70
2021/01/05 06:36:00;;;;;;;;;;;2.90;94.50;;;;;;5019976;28;20367;-70
2021/01/05 06:38:26;;;;;;;;;;;2.90;94.50;;;;;;5019645;28;19925;-70
2021/01/05 06:40:51;;;;;;;;;;;2.90;94.40;;;;;;5018727;28;19949;-71
2021/01/05 06:43:17;;;;;;;;;;;2.90;94.40;;;;;;5022478;28;19924;-71
2021/01/05 06:45:43;;;;;;;;;;;2.90;94.40;;;;;;5020652;28;19917;-70
2021/01/05 06:48:09;;;;;;;;;;;2.90;94.50;;;;;;5022179;28;19928;-71
2021/01/05 06:50:34;;;;;;;;;;;2.90;94.40;;;;;;5019576;28;20356;-70
2021/01/05 06:53:00;;;;;;;;;;;3.30;94.30;;;;;;5019947;28;19921;-70
2021/01/05 06:55:25;;;;;;;;;;;3.00;94.30;;;;;;5022030;28;20360;-70
2021/01/05 06:57:51;;;;;;;;;;;3.00;94.30;;;;;;5021375;28;19932;-71
2021/01/05 07:00:27;;;;;;;;;;;2.90;94.20;;;;;;5018725;28;19921;-71
2021/01/05 07:02:53;;;;;;;;;;;3.00;94.20;;;;;;5021502;28;19922;-70
2021/01/05 07:05:19;;;;;;;;;;;2.90;94.10;;;;;;5022488;28;20299;-70
2021/01/05 07:07:45;;;;;;;;;;;3.00;94.00;;;;;;5018257;28;19925;-70
2021/01/05 07:10:11;;;;;;;;;;;3.10;93.90;;;;;;5021725;28;20409;-70
2021/01/05 07:12:37;;;;;;;;;;;3.00;93.90;;;;;;5019051;28;19975;-70
2021/01/05 07:15:03;;;;;;;;;;;3.00;94.00;;;;;;5021976;28;19925;-70
2021/01/05 07:17:29;;;;;;;;;;;3.00;94.00;;;;;;5019297;28;19916;-70
2021/01/05 07:19:55;;;;;;;;;;;3.00;94.00;;;;;;5022373;28;19972;-70
2021/01/05 07:22:21;;;;;;;;;;;3.00;93.90;;;;;;5020152;28;19925;-70
2021/01/05 07:24:46;;;;;;;;;;;3.00;94.00;;;;;;5021929;28;19926;-70
2021/01/05 07:27:12;;;;;;;;;;;3.00;93.90;;;;;;5021789;28;19927;-70
2021/01/05 07:29:37;;;;;;;;;;;3.00;93.80;;;;;;5020345;28;19928;-70
2021/01/05 07:32:03;;;;;;;;;;;3.00;93.70;;;;;;5019882;28;19921;-70
2021/01/05 07:34:29;;;;;;;;;;;3.00;93.80;;;;;;5019437;28;19974;-70
2021/01/05 07:36:57;;;;;;;;;;;3.00;93.80;;;;;;5019212;28;19956;-70
2021/01/05 07:39:24;;;;;;;;;;;3.00;93.70;;;;;;5020166;28;19936;-70
2021/01/05 07:41:50;;;;;;;;;;;3.00;93.80;;;;;;5020795;28;19920;-70
2021/01/05 07:44:17;;;;;;;;;;;3.00;93.80;;;;;;5014619;28;19917;-70
2021/01/05 07:46:43;;;;;;;;;;;3.10;93.60;;;;;;5018533;28;20009;-70
2021/01/05 07:49:09;;;;;;;;;;;3.00;93.50;;;;;;5021484;28;19956;-70
2021/01/05 07:51:34;;;;;;;;;;;3.00;93.70;;;;;;5020762;28;20737;-70
2021/01/05 07:54:00;;;;;;;;;;;3.20;93.60;;;;;;5021171;28;19924;-70
2021/01/05 07:56:25;;;;;;;;;;;3.00;93.60;;;;;;5019585;28;20623;-70
2021/01/05 07:58:51;;;;;;;;;;;3.00;93.60;;;;;;5021750;28;19925;-71
2021/01/05 08:01:17;;;;;;;;;;;3.00;93.70;;;;;;5017889;28;20359;-70
2021/01/05 08:03:42;;;;;;;;;;;3.00;93.70;;;;;;5017445;28;19925;-70
2021/01/05 08:06:09;;;;;;;;;;;2.90;93.70;;;;;;5021352;28;19929;-71
2021/01/05 08:08:34;;;;;;;;;;;2.90;93.60;;;;;;5024279;28;19921;-71
2021/01/05 08:11:00;;;;;;;;;;;2.90;93.60;;;;;;5019454;28;20386;-71
2021/01/05 08:13:25;;;;;;;;;;;2.90;93.50;;;;;;5022364;28;20375;-71
2021/01/05 08:15:51;;;;;;;;;;;2.90;93.60;;;;;;5018851;28;20695;-71
2021/01/05 08:18:17;;;;;;;;;;;2.90;93.60;;;;;;5022275;28;19928;-71
2021/01/05 08:20:42;;;;;;;;;;;2.90;93.60;;;;;;5018231;28;19932;-70
2021/01/05 08:23:08;;;;;;;;;;;2.90;93.70;;;;;;5022421;28;20375;-71
2021/01/05 08:25:34;;;;;;;;;;;2.90;93.80;;;;;;5014129;28;19920;-71
2021/01/05 08:28:00;;;;;;;;;;;2.90;94.00;;;;;;5016953;28;19917;-71
2021/01/05 08:30:27;;;;;;;;;;;2.90;94.00;;;;;;5018673;28;19940;-71
2021/01/05 08:32:54;;;;;;;;;;;2.80;94.20;;;;;;5022725;28;19979;-71
2021/01/05 08:35:21;;;;;;;;;;;2.90;94.20;;;;;;5022110;28;19925;-71
2021/01/05 08:37:47;;;;;;;;;;;2.90;94.20;;;;;;5019564;28;19968;-71
2021/01/05 08:40:15;;;;;;;;;;;2.90;94.10;;;;;;5024710;28;20001;-71
2021/01/05 08:42:41;;;;;;;;;;;2.90;93.90;;;;;;5018774;28;20545;-71
2021/01/05 08:45:07;;;;;;;;;;;3.00;93.90;;;;;;5019875;28;19924;-71
2021/01/05 08:47:33;;;;;;;;;;;2.90;94.00;;;;;;5020673;28;19921;-71
2021/01/05 08:49:59;;;;;;;;;;;3.00;93.80;;;;;;5023923;28;20362;-71
2021/01/05 08:52:24;;;;;;;;;;;2.90;93.70;;;;;;5017286;28;19929;-71
2021/01/05 08:54:50;;;;;;;;;;;2.90;93.90;;;;;;5021887;28;19922;-71
2021/01/05 08:57:16;;;;;;;;;;;2.90;93.90;;;;;;5024311;28;19917;-71
2021/01/05 08:59:44;;;;;;;;;;;2.90;94.20;;;;;;5020167;28;20406;-71
2021/01/05 09:02:10;;;;;;;;;;;2.90;94.00;;;;;;5019667;28;19924;-71
2021/01/05 09:04:36;;;;;;;;;;;2.90;93.90;;;;;;5023012;28;19990;-71
2021/01/05 09:07:02;;;;;;;;;;;2.90;94.00;;;;;;5021340;28;20036;-71
2021/01/05 09:09:27;;;;;;;;;;;2.90;94.10;;;;;;5022313;28;20260;-71
2021/01/05 09:11:54;;;;;;;;;;;2.90;94.00;;;;;;5018323;28;19921;-71
2021/01/05 09:14:20;;;;;;;;;;;2.90;93.70;;;;;;5020629;28;20378;-71
2021/01/05 09:16:46;;;;;;;;;;;2.90;93.80;;;;;;5021310;28;20129;-71
2021/01/05 09:19:11;;;;;;;;;;;2.80;93.70;;;;;;5023500;28;19917;-71
2021/01/05 09:21:37;;;;;;;;;;;2.80;93.90;;;;;;5021695;28;19924;-71
2021/01/05 09:24:04;;;;;;;;;;;2.80;94.00;;;;;;5022625;28;19925;-71
2021/01/05 09:26:30;;;;;;;;;;;2.70;94.20;;;;;;5028186;28;20287;-71
2021/01/05 09:28:56;;;;;;;;;;;2.70;94.20;;;;;;5027286;28;19929;-71
2021/01/05 09:31:22;;;;;;;;;;;2.60;94.30;;;;;;5021220;28;19932;-71
2021/01/05 09:33:48;;;;;;;;;;;2.60;94.60;;;;;;5021697;28;19917;-71
2021/01/05 09:36:14;;;;;;;;;;;2.70;94.50;;;;;;5028300;28;19944;-71
2021/01/05 09:38:40;;;;;;;;;;;2.60;94.60;;;;;;5027142;28;19917;-71
2021/01/05 09:42:23;;;;;;;6.40;2.25;;;2.60;94.50;;;;;;5117084;27;20401;-69
2021/01/05 09:44:50;;;;;;;3.67;2.75;;;2.70;95.10;;;;;;5100617;28;20444;-69
2021/01/05 09:47:22;;;;;;;3.80;2.22;;;2.60;95.00;;;;;;5091162;28;20059;-69
2021/01/05 09:49:49;;;;;;;6.07;2.42;;;2.60;94.80;;;;;;5092014;28;20563;-69
2021/01/05 09:52:15;;;;;;;8.60;3.30;;;2.60;94.80;;;;;;5094051;28;20128;-69
2021/01/05 09:54:46;;;;;;;5.15;3.55;;;2.70;95.00;;;;;;5092380;28;20040;-69
2021/01/05 09:57:12;;;;;;;6.43;3.00;;;2.70;95.00;;;;;;5094790;28;20040;-69
2021/01/05 09:59:38;;;;;;;7.85;3.47;;;2.70;95.00;;;;;;5093767;28;20397;-69
2021/01/05 10:02:05;;;;;;;4.68;2.70;;;2.70;95.20;;;;;;5091996;28;20023;-69
2021/01/05 10:04:31;;;;;;;6.20;3.60;;;2.70;95.30;;;;;;5092928;28;20036;-69
2021/01/05 10:06:57;;;;;;;5.43;3.42;;;2.70;95.40;;;;;;5090060;28;20040;-69
2021/01/05 10:09:22;;;;;;;5.72;3.13;;;2.70;95.60;;;;;;5091013;28;20043;-69
2021/01/05 10:11:48;;;;;;;6.88;4.03;;;2.80;95.40;;;;;;5091574;28;20089;-69
2021/01/05 10:14:17;;;;;;;8.68;3.67;;;2.70;95.40;;;;;;5088668;28;20056;-69
2021/01/05 10:16:43;;;;;;;6.43;3.15;;;2.80;95.50;;;;;;5091736;28;20120;-69
2021/01/05 10:19:13;;;;;;;5.00;3.53;;;2.80;95.50;;;;;;5093140;28;20040;-69
2021/01/05 10:21:41;;;;;;;6.28;4.20;;;2.80;95.50;;;;;;5089482;28;20032;-69
2021/01/05 10:24:12;;;;;;;9.93;3.75;;;2.80;95.60;;;;;;5092560;28;20128;-69
2021/01/05 10:26:38;;;;;;;6.50;3.90;;;2.80;95.50;;;;;;5091695;28;20089;-69
2021/01/05 10:29:06;;;;;;;6.28;3.85;;;2.80;95.50;;;;;;5087076;28;20036;-69
2021/01/05 10:31:39;;;;;;;5.82;4.07;;;2.80;95.50;;;;;;5091882;28;20044;-69
2021/01/05 10:34:06;;;;;;;6.22;4.10;;;2.80;95.50;;;;;;5091687;28;20142;-69
2021/01/05 10:36:32;;;;;;;8.88;5.20;;;2.80;95.50;;;;;;5089295;28;20038;-69
2021/01/05 10:38:57;;;;;;;10.40;5.20;;;2.80;95.50;;;;;;5094011;28;20119;-69
2021/01/05 10:41:35;;;;;;;9.23;4.70;;;2.90;95.70;;;;;;5086425;28;20043;-69
2021/01/05 10:44:00;;;;;;;8.55;4.75;;;2.90;95.50;;;;;;5090662;28;20127;-69
2021/01/05 10:46:27;;;;;;;10.23;4.95;;;2.90;95.60;;;;;;5091700;28;20094;-69
2021/01/05 10:48:52;;;;;;;8.25;5.45;;;2.90;95.60;;;;;;5106058;28;20036;-69
2021/01/05 10:51:18;;;;;;;9.02;5.35;;;2.90;95.60;;;;;;5088958;28;20131;-69
2021/01/05 10:53:44;;;;;;;12.52;5.72;;;3.00;95.60;;;;;;5077229;28;20982;-69
2021/01/05 10:56:14;;;;;;;7.18;5.28;;;3.00;95.60;;;;;;5074140;28;20098;-69
2021/01/05 10:58:40;;;;;;;8.95;4.97;;;3.00;95.70;;;;;;5076790;28;20052;-69
2021/01/05 11:01:06;;;;;;;9.05;5.65;;;3.00;95.60;;;;;;5076489;28;20043;-69
2021/01/05 11:03:32;;;;;;;9.48;5.78;;;3.10;95.90;;;;;;5076079;28;20491;-69
2021/01/05 11:05:58;;;;;;;10.35;6.45;;;3.10;95.60;;;;;;5077651;28;20041;-69
2021/01/05 11:08:23;;;;;;;12.13;5.85;;;3.10;95.70;;;;;;5073807;28;20090;-69
2021/01/05 11:10:49;;;;;;;10.13;5.78;;;3.10;95.70;;;;;;5077802;28;20036;-69
2021/01/05 11:13:15;;;;;;;8.68;5.78;;;3.10;95.70;;;;;;5074855;28;20408;-69
2021/01/05 11:15:40;;;;;;;9.25;6.57;;;3.20;95.60;;;;;;5076419;28;20394;-69
2021/01/05 11:18:06;;;;;;;12.70;6.68;;;3.20;95.60;;;;;;5074465;28;20073;-69
2021/01/05 11:20:31;;;;;;;9.13;6.50;;;3.20;95.50;;;;;;5077943;28;20032;-69
2021/01/05 11:22:57;;;;;;;9.30;6.40;;;3.30;95.40;;;;;;5074317;28;20041;-69
2021/01/05 11:25:23;;;;;;;8.38;6.50;;;3.40;95.40;;;;;;5071877;28;20071;-69
2021/01/05 11:27:50;;;;;;;11.80;6.28;;;3.30;95.20;;;;;;5073275;28;20159;-71
2021/01/05 11:30:20;;;;;;;13.65;7.35;;;3.30;95.20;;;;;;5075056;28;20047;-71
2021/01/05 11:32:46;;;;;;;10.38;6.90;;;3.30;95.40;;;;;;5071881;28;20064;-71
2021/01/05 11:35:13;;;;;;;9.38;6.78;;;3.30;95.30;;;;;;5076326;28;20076;-71
2021/01/05 11:37:39;;;;;;;9.80;6.40;;;3.30;95.30;;;;;;5074681;28;20046;-71
2021/01/05 11:40:05;;;;;;;12.30;6.45;;;3.30;95.30;;;;;;5073252;28;20168;-72
2021/01/05 11:42:31;;;;;;;10.65;6.82;;;3.30;95.30;;;;;;5072638;28;20036;-72
2021/01/05 11:44:57;;;;;;;9.40;6.50;;;3.30;95.40;;;;;;5070323;28;20040;-71
2021/01/05 11:47:24;;;;;;;11.15;7.00;;;3.30;95.40;;;;;;5076774;28;20036;-71
2021/01/05 11:49:50;;;;;;;10.23;6.10;;;3.30;95.30;;;;;;5074404;28;20122;-72
2021/01/05 11:52:16;;;;;;;9.85;6.90;;;3.30;95.30;;;;;;5072397;28;20504;-71
2021/01/05 11:54:42;;;;;;;9.85;7.10;;;3.30;95.30;;;;;;5073271;28;20491;-71
2021/01/05 11:57:09;;;;;;;8.75;6.13;;;3.30;95.30;;;;;;5073907;28;20060;-71
2021/01/05 11:59:34;;;;;;;9.15;6.28;;;3.30;95.20;;;;;;5074102;28;20078;-71
2021/01/05 12:02:02;;;;;;;12.05;6.85;;;3.30;95.10;;;;;;5077398;28;20041;-71
2021/01/05 12:04:28;;;;;;;7.45;6.70;;;3.30;95.10;;;;;;5072562;28;20037;-71
2021/01/05 12:06:54;;;;;;;9.52;6.80;;;3.30;95.20;;;;;;5078065;28;20036;-71
2021/01/05 12:09:23;;;;;;;9.73;6.72;;;3.30;95.20;;;;;;5076650;28;20033;-71
2021/01/05 12:11:53;;;;;;;10.75;6.43;;;3.40;95.10;;;;;;5076034;28;20044;-71
2021/01/05 12:14:19;;;;;;;8.35;5.68;;;3.40;95.10;;;;;;5076146;28;20038;-71
2021/01/05 12:16:48;;;;;;;7.82;6.63;;;3.40;94.90;;;;;;5075752;28;20586;-71
2021/01/05 12:19:18;;;;;;;8.40;5.97;;;3.40;95.00;;;;;;5074714;28;20437;-71
2021/01/05 12:21:44;;;;;;;8.13;6.32;;;3.40;95.00;;;;;;5074504;28;20033;-72
2021/01/05 12:24:21;;;;;;;6.40;5.63;;;3.40;95.00;;;;;;5073918;28;20040;-72
2021/01/05 12:26:47;;;;;;;8.55;6.00;;;3.40;95.00;;;;;;5072658;28;20082;-72
2021/01/05 12:29:18;;;;;;;9.90;6.00;;;3.40;94.80;;;;;;5072698;28;20036;-72
2021/01/05 12:31:48;;;;;;;9.57;6.88;;;3.40;94.80;;;;;;5073471;28;20044;-72
2021/01/05 12:34:16;;;;;;;8.63;6.22;;;3.40;94.90;;;;;;5077771;28;20075;-72
2021/01/05 12:36:43;;;;;;;6.97;6.13;;;3.40;94.90;;;;;;5072882;28;20047;-71
2021/01/05 12:39:18;;;;;;;8.02;6.18;;;3.40;94.80;;;;;;5073892;28;20127;-71
2021/01/05 12:41:44;;;;;;;9.77;6.22;;;3.40;94.90;;;;;;5074012;28;20490;-72
2021/01/05 12:44:17;;;;;;;6.90;6.03;;;3.40;94.70;;;;;;5074521;28;20044;-71
2021/01/05 12:46:43;;;;;;;10.82;6.05;;;3.50;94.70;;;;;;5072715;28;20099;-71
2021/01/05 12:49:11;;;;;;;7.72;6.63;;;3.50;94.70;;;;;;5074651;28;20063;-72
2021/01/05 12:51:40;;;;;;;6.50;5.50;;;3.50;94.70;;;;;;5072309;28;20135;-72
2021/01/05 12:54:07;;;;;;;6.97;5.85;;;3.50;94.60;;;;;;5075755;28;20104;-72
2021/01/05 12:56:34;;;;;;;6.80;5.28;;;3.50;94.50;;;;;;5072414;28;20100;-71
2021/01/05 12:59:00;;;;;;;8.73;6.55;;;3.50;94.50;;;;;;5074300;28;20398;-71
2021/01/05 13:01:26;;;;;;;9.25;5.95;;;3.50;94.40;;;;;;5078218;28;20036;-72
2021/01/05 13:03:52;;;;;;;8.95;5.72;;;3.50;94.60;;;;;;5070308;28;20029;-71
2021/01/05 13:06:18;;;;;;;8.02;6.13;;;3.50;94.50;;;;;;5071586;28;20169;-72
2021/01/05 13:08:46;;;;;;;8.45;5.63;;;3.50;94.60;;;;;;5073318;28;20036;-71
2021/01/05 13:11:14;;;;;;;6.38;5.20;;;3.50;94.70;;;;;;5077077;28;20033;-71
2021/01/05 13:13:40;;;;;;;8.60;6.07;;;3.50;94.70;;;;;;5074103;28;20383;-71
2021/01/05 13:16:17;;;;;;;5.82;5.10;;;3.50;94.70;;;;;;5076580;28;20082;-72
2021/01/05 13:18:43;;;;;;;8.18;5.43;;;3.50;94.70;;;;;;5071819;28;20465;-71
2021/01/05 13:21:09;;;;;;;6.43;4.88;;;3.50;94.80;;;;;;5075017;28;20045;-71
2021/01/05 13:23:35;;;;;;;5.95;4.90;;;3.50;94.70;;;;;;5073013;28;20046;-72
2021/01/05 13:26:01;;;;;;;6.43;5.07;;;3.50;94.70;;;;;;5073289;28;20521;-72
2021/01/05 13:28:27;;;;;;;7.57;4.82;;;3.50;94.70;;;;;;5072085;28;20449;-71
2021/01/05 13:30:53;;;;;;;6.32;4.30;;;3.50;94.80;;;;;;5073267;28;20560;-72
2021/01/05 13:33:19;;;;;;;5.78;4.32;;;3.50;94.60;;;;;;5070353;28;20041;-72
2021/01/05 13:35:45;;;;;;;4.55;4.15;;;3.50;94.70;;;;;;5075171;28;20036;-72
2021/01/05 13:38:11;;;;;;;5.78;4.07;;;3.50;94.60;;;;;;5076835;28;20037;-72
2021/01/05 13:40:39;;;;;;;4.60;3.65;;;3.50;94.60;;;;;;5077813;28;20048;-72
2021/01/05 13:43:05;;;;;;;5.47;4.53;;;3.50;94.50;;;;;;5069718;28;20033;-72
2021/01/05 13:45:30;;;;;;;4.57;3.90;;;3.50;94.60;;;;;;5072435;28;20036;-72
2021/01/05 13:47:56;;;;;;;6.65;4.25;;;3.30;94.40;;;;;;5073194;28;20135;-72
2021/01/05 13:50:22;;;;;;;6.30;4.03;;;3.50;94.50;;;;;;5077429;28;20059;-72
2021/01/05 13:52:49;;;;;;;3.95;3.05;;;3.50;94.50;;;;;;5074953;28;20036;-72
2021/01/05 13:55:17;;;;;;;6.28;2.95;;;3.50;94.50;;;;;;5071872;28;20097;-72
2021/01/05 13:57:47;;;;;;;4.38;3.08;;;3.50;94.20;;;;;;5076783;28;20372;-72
2021/01/05 14:00:14;;;;;;;3.70;3.30;;;3.50;94.30;;;;;;5074712;28;20040;-71
2021/01/05 14:02:40;;;;;;;5.28;3.55;;;3.50;94.40;;;;;;5075748;28;20425;-72